Terminal Aerodrome Forecast
Issued by NWS Lake Charles, LA

Home | Current Version | Previous Version | Text Only | Print | Product List | Glossary On
Versions: 1 2 3 4 5 6 7 8 9 10 11 12 13 14 15 16 17 18 19 20 21 22
000
FTUS44 KLCH 152300
TAFARA
TAF
KARA 152326Z 1600/1624 08010KT P6SM -SHRA VCTS BKN035CB
     FM160100 VRB03KT P6SM SCT250
      TEMPO 1609/1613 5SM BR
     FM161400 06006KT P6SM VCSH SCT025 SCT250
     FM161700 11008KT P6SM VCTS BKN035CB=

USA.gov is the U.S. government's official web portal to all federal, state and local government web resources and services.